createdAt,value
2022-09-29T00:01:23.522Z,5.07
2022-09-29T00:04:06.169Z,4.60
2022-09-29T00:06:50.142Z,4.90
2022-09-29T00:09:32.803Z,4.57
2022-09-29T00:12:15.498Z,4.68
2022-09-29T00:14:58.369Z,4.30
2022-09-29T00:17:49.680Z,4.55
2022-09-29T00:20:43.886Z,4.80
2022-09-29T00:23:28.140Z,4.70
2022-09-29T00:26:12.088Z,4.20
2022-09-29T00:28:56.373Z,3.92
2022-09-29T00:31:39.182Z,3.95
2022-09-29T00:34:22.080Z,4.05
2022-09-29T00:37:05.228Z,4.15
2022-09-29T00:39:49.153Z,3.70
2022-09-29T00:42:32.710Z,4.15
2022-09-29T00:45:17.615Z,4.07
2022-09-29T00:48:04.053Z,4.63
2022-09-29T00:50:48.335Z,4.40
2022-09-29T00:53:30.943Z,4.10
2022-09-29T00:56:15.878Z,4.50
2022-09-29T00:59:01.164Z,4.90
2022-09-29T01:01:43.878Z,4.78
2022-09-29T01:04:26.641Z,4.80
2022-09-29T01:07:10.407Z,4.82
2022-09-29T01:09:54.172Z,5.00
2022-09-29T01:12:38.195Z,5.20
2022-09-29T01:15:22.000Z,4.60
2022-09-29T01:18:06.986Z,4.00
2022-09-29T01:20:53.523Z,4.47
2022-09-29T01:23:59.796Z,4.65
2022-09-29T01:27:01.246Z,4.47
2022-09-29T01:30:01.955Z,4.70
2022-09-29T01:32:53.076Z,4.55
2022-09-29T01:35:41.220Z,4.10
2022-09-29T01:38:36.026Z,3.85
2022-09-29T01:41:22.446Z,4.10
2022-09-29T01:44:06.790Z,4.28
2022-09-29T01:46:51.162Z,4.38
2022-09-29T01:49:36.939Z,4.78
2022-09-29T01:52:20.984Z,4.80
2022-09-29T01:55:06.500Z,4.82
2022-09-29T01:57:51.801Z,4.75
2022-09-29T02:00:38.957Z,4.70
2022-09-29T02:03:23.543Z,4.50
2022-09-29T02:06:10.859Z,4.60
2022-09-29T02:08:54.836Z,4.55
2022-09-29T02:11:40.111Z,4.70
2022-09-29T02:14:23.542Z,4.60
2022-09-29T02:17:08.070Z,4.28
2022-09-29T02:19:52.070Z,3.92
2022-09-29T02:22:38.468Z,4.20
2022-09-29T02:25:21.161Z,3.70
2022-09-29T02:28:03.761Z,4.00
2022-09-29T02:30:46.435Z,4.28
2022-09-29T02:33:29.052Z,3.90
2022-09-29T02:36:19.752Z,3.63
2022-09-29T02:39:07.356Z,3.85
2022-09-29T02:41:52.242Z,3.50
2022-09-29T02:44:40.995Z,3.53
2022-09-29T02:47:35.170Z,3.60
2022-09-29T02:50:27.890Z,3.70
2022-09-29T02:53:14.574Z,3.92
2022-09-29T02:56:04.274Z,4.35
2022-09-29T02:58:50.712Z,4.20
2022-09-29T03:01:33.650Z,4.15
2022-09-29T03:04:16.347Z,3.72
2022-09-29T03:06:59.298Z,3.22
2022-09-29T03:09:41.935Z,3.90
2022-09-29T03:12:25.955Z,3.50
2022-09-29T03:15:09.219Z,3.45
2022-09-29T03:17:51.995Z,2.88
2022-09-29T03:20:35.078Z,3.45
2022-09-29T03:23:17.735Z,3.63
2022-09-29T03:26:00.465Z,4.10
2022-09-29T03:28:44.494Z,3.75
2022-09-29T03:31:27.137Z,3.60
2022-09-29T03:34:09.725Z,3.78
2022-09-29T03:36:52.476Z,3.67
2022-09-29T03:39:35.158Z,4.18
2022-09-29T03:42:17.860Z,3.53
2022-09-29T03:45:01.814Z,3.75
2022-09-29T03:47:44.455Z,3.40
2022-09-29T03:50:27.158Z,3.75
2022-09-29T03:53:09.911Z,3.50
2022-09-29T03:55:52.572Z,3.85
2022-09-29T03:58:35.208Z,4.45
2022-09-29T04:01:19.356Z,3.92
2022-09-29T04:04:02.434Z,4.00
2022-09-29T04:06:44.972Z,3.72
2022-09-29T04:09:27.563Z,3.80
2022-09-29T04:12:10.101Z,3.88
2022-09-29T04:14:53.001Z,3.35
2022-09-29T04:17:36.943Z,4.05
2022-09-29T04:20:19.861Z,4.30
2022-09-29T04:23:02.447Z,3.78
2022-09-29T04:25:45.705Z,3.97
2022-09-29T04:28:28.281Z,3.65
2022-09-29T04:31:11.097Z,3.45
2022-09-29T04:33:55.034Z,3.83
2022-09-29T04:36:37.608Z,3.80
2022-09-29T04:39:20.262Z,3.67
2022-09-29T04:42:02.969Z,3.60
2022-09-29T04:44:45.575Z,3.85
2022-09-29T04:47:28.177Z,3.58
2022-09-29T04:50:12.169Z,3.92
2022-09-29T04:52:54.838Z,4.10
2022-09-29T04:55:38.003Z,3.35
2022-09-29T04:58:20.610Z,3.92
2022-09-29T05:01:07.202Z,3.58
2022-09-29T05:03:49.830Z,3.33
2022-09-29T05:06:33.824Z,3.65
2022-09-29T05:09:16.478Z,3.70
2022-09-29T05:11:59.165Z,3.75
2022-09-29T05:14:41.870Z,4.28
2022-09-29T05:17:24.588Z,4.10
2022-09-29T05:20:07.550Z,4.47
2022-09-29T05:22:51.571Z,4.13
2022-09-29T05:25:35.295Z,4.05
2022-09-29T05:28:18.436Z,4.32
2022-09-29T05:31:04.910Z,4.38
2022-09-29T05:33:47.794Z,4.50
2022-09-29T05:36:30.453Z,4.60
2022-09-29T05:39:14.552Z,4.40
2022-09-29T05:41:59.609Z,4.47
2022-09-29T05:44:42.501Z,4.28
2022-09-29T05:47:25.232Z,4.47
2022-09-29T05:50:08.529Z,3.92
2022-09-29T05:52:52.923Z,4.40
2022-09-29T05:55:37.083Z,4.00
2022-09-29T05:58:19.986Z,3.78
2022-09-29T06:01:05.980Z,4.30
2022-09-29T06:03:48.595Z,4.63
2022-09-29T06:06:31.225Z,4.30
2022-09-29T06:09:14.616Z,3.92
2022-09-29T06:12:01.836Z,4.70
2022-09-29T06:14:44.757Z,4.60
2022-09-29T06:17:27.388Z,4.40
2022-09-29T06:20:10.792Z,4.70
2022-09-29T06:22:54.762Z,4.80
2022-09-29T06:25:37.703Z,5.03
2022-09-29T06:28:22.115Z,5.10
2022-09-29T06:31:06.278Z,5.13
2022-09-29T06:33:48.943Z,5.60
2022-09-29T06:36:50.773Z,5.63
2022-09-29T06:39:33.673Z,5.20
2022-09-29T06:42:16.493Z,4.90
2022-09-29T06:45:00.541Z,4.88
2022-09-29T06:47:43.431Z,5.78
2022-09-29T06:50:26.277Z,5.32
2022-09-29T06:53:09.084Z,5.43
2022-09-29T06:55:55.889Z,5.38
2022-09-29T06:58:39.024Z,5.38
2022-09-29T07:01:23.143Z,5.28
2022-09-29T07:04:05.802Z,5.53
2022-09-29T07:06:48.948Z,5.75
2022-09-29T07:09:31.786Z,5.60
2022-09-29T07:12:14.466Z,6.28
2022-09-29T07:14:57.279Z,5.55
2022-09-29T07:17:41.321Z,5.88
2022-09-29T07:20:24.038Z,5.85
2022-09-29T07:23:08.073Z,6.15
2022-09-29T07:25:52.756Z,5.97
2022-09-29T07:28:35.762Z,6.32
2022-09-29T07:31:20.554Z,6.20
2022-09-29T07:34:04.650Z,6.10
2022-09-29T07:36:47.308Z,6.50
2022-09-29T07:39:29.948Z,5.47
2022-09-29T07:42:12.635Z,6.60
2022-09-29T07:44:55.270Z,6.63
2022-09-29T07:47:38.818Z,6.07
2022-09-29T07:50:23.183Z,6.40
2022-09-29T07:53:05.891Z,6.65
2022-09-29T07:55:48.588Z,6.38
2022-09-29T07:58:32.350Z,6.32
2022-09-29T08:01:16.263Z,7.13
2022-09-29T08:03:59.338Z,6.18
2022-09-29T08:06:43.576Z,6.47
2022-09-29T08:09:37.011Z,6.10
2022-09-29T08:12:22.577Z,6.30
2022-09-29T08:15:05.940Z,5.40
2022-09-29T08:17:48.714Z,5.88
2022-09-29T08:20:31.844Z,6.35
2022-09-29T08:23:15.924Z,5.70
2022-09-29T08:26:02.871Z,6.18
2022-09-29T08:28:46.993Z,5.65
2022-09-29T08:31:31.396Z,5.28
2022-09-29T08:34:15.711Z,5.57
2022-09-29T08:36:59.016Z,5.82
2022-09-29T08:39:43.035Z,4.65
2022-09-29T08:42:35.484Z,5.63
2022-09-29T08:45:26.488Z,6.13
2022-09-29T08:48:21.737Z,5.60
2022-09-29T08:51:07.394Z,5.00
2022-09-29T08:54:01.743Z,5.13
2022-09-29T08:56:46.945Z,5.45
2022-09-29T08:59:31.023Z,5.30
2022-09-29T09:02:34.446Z,6.00
2022-09-29T09:05:23.081Z,5.30
2022-09-29T09:08:11.166Z,5.38
2022-09-29T09:10:58.704Z,5.60
2022-09-29T09:13:49.920Z,5.57
2022-09-29T09:16:37.011Z,5.68
2022-09-29T09:19:34.299Z,5.75
2022-09-29T09:22:25.079Z,5.82
2022-09-29T09:25:12.443Z,5.53
2022-09-29T09:28:00.582Z,5.55
2022-09-29T09:30:49.387Z,5.32
2022-09-29T09:33:36.038Z,5.13
2022-09-29T09:36:31.679Z,5.72
2022-09-29T09:39:18.195Z,5.15
2022-09-29T09:42:01.605Z,5.05
2022-09-29T09:44:48.204Z,4.85
2022-09-29T09:47:34.919Z,5.15
2022-09-29T09:50:18.836Z,4.95
2022-09-29T09:53:04.230Z,5.20
2022-09-29T09:55:47.720Z,4.95
2022-09-29T09:58:37.118Z,4.57
2022-09-29T10:01:20.172Z,4.97
2022-09-29T10:04:04.308Z,4.97
2022-09-29T10:06:46.964Z,4.60
2022-09-29T10:09:30.143Z,4.68
2022-09-29T10:12:15.874Z,4.00
2022-09-29T10:15:00.673Z,4.43
2022-09-29T10:17:44.865Z,4.13
2022-09-29T10:20:34.355Z,4.32
2022-09-29T10:23:30.723Z,3.78
2022-09-29T10:26:15.147Z,3.88
2022-09-29T10:28:59.360Z,3.42
2022-09-29T10:31:42.124Z,3.20
2022-09-29T10:34:25.922Z,3.58
2022-09-29T10:37:21.194Z,3.65
2022-09-29T10:40:05.191Z,3.70
2022-09-29T10:42:50.359Z,3.28
2022-09-29T10:45:33.004Z,3.63
2022-09-29T10:48:16.011Z,3.20
2022-09-29T10:53:44.913Z,3.47
2022-09-29T10:56:29.920Z,3.30
2022-09-29T10:59:12.604Z,3.20
2022-09-29T11:01:56.685Z,3.55
2022-09-29T11:04:41.136Z,3.53
2022-09-29T11:07:23.945Z,3.63
2022-09-29T11:10:28.063Z,3.80
2022-09-29T11:13:25.719Z,3.60
2022-09-29T11:16:15.345Z,3.08
2022-09-29T11:19:00.366Z,3.47
2022-09-29T11:21:56.270Z,3.83
2022-09-29T11:24:43.911Z,3.97
2022-09-29T11:27:34.250Z,3.75
2022-09-29T11:30:20.752Z,3.50
2022-09-29T11:33:16.011Z,3.90
2022-09-29T11:36:04.661Z,3.90
2022-09-29T11:38:55.569Z,3.50
2022-09-29T11:41:51.824Z,3.65
2022-09-29T11:44:58.304Z,3.42
2022-09-29T11:47:47.762Z,3.17
2022-09-29T11:50:36.751Z,3.17
2022-09-29T11:53:32.635Z,3.63
2022-09-29T11:56:29.168Z,3.63
2022-09-29T11:59:21.210Z,3.83
2022-09-29T12:02:19.302Z,3.25
2022-09-29T12:05:05.935Z,3.50
2022-09-29T12:07:52.919Z,3.22
2022-09-29T12:10:44.140Z,3.17
2022-09-29T12:13:33.680Z,3.60
2022-09-29T12:16:17.994Z,2.90
2022-09-29T12:19:04.926Z,3.40
2022-09-29T12:21:50.409Z,2.95
2022-09-29T12:24:36.267Z,3.20
2022-09-29T12:27:23.761Z,3.08
2022-09-29T12:30:15.941Z,3.30
2022-09-29T12:33:01.431Z,2.78
2022-09-29T12:35:48.078Z,2.80
2022-09-29T12:38:35.458Z,2.63
2022-09-29T12:41:22.067Z,2.58
2022-09-29T12:44:08.900Z,2.30
2022-09-29T12:46:54.189Z,2.60
2022-09-29T12:49:40.978Z,2.40
2022-09-29T12:52:29.420Z,2.05
2022-09-29T12:55:18.981Z,1.90
2022-09-29T12:58:02.923Z,2.08
2022-09-29T13:00:48.641Z,2.03
2022-09-29T13:03:46.159Z,1.92
2022-09-29T13:06:45.861Z,2.42
2022-09-29T13:09:36.334Z,1.95
2022-09-29T13:12:29.039Z,2.22
2022-09-29T13:15:22.798Z,2.15
2022-09-29T13:18:13.125Z,2.03
2022-09-29T13:21:02.888Z,1.73
2022-09-29T13:24:02.331Z,2.10
2022-09-29T13:27:04.390Z,1.88
2022-09-29T13:29:48.951Z,1.90
2022-09-29T13:32:33.162Z,1.88
2022-09-29T13:35:19.975Z,1.65
2022-09-29T13:38:03.902Z,1.77
2022-09-29T13:41:01.467Z,2.00
2022-09-29T13:44:02.939Z,2.03
2022-09-29T13:46:46.996Z,2.00
2022-09-29T13:49:31.559Z,2.17
2022-09-29T13:52:29.105Z,2.42
2022-09-29T13:55:26.756Z,2.20
2022-09-29T13:58:21.820Z,2.30
2022-09-29T14:01:06.023Z,2.38
2022-09-29T14:03:50.150Z,2.30
2022-09-29T14:06:41.169Z,2.00
2022-09-29T14:09:27.498Z,2.38
2022-09-29T14:12:11.603Z,2.30
2022-09-29T14:14:56.493Z,2.50
2022-09-29T14:17:43.707Z,2.70
2022-09-29T14:20:30.096Z,2.85
2022-09-29T14:23:13.103Z,3.20
2022-09-29T14:25:56.272Z,2.78
2022-09-29T14:28:42.174Z,3.05
2022-09-29T14:31:25.191Z,3.90
2022-09-29T14:34:15.226Z,3.50
2022-09-29T14:36:59.730Z,3.50
2022-09-29T14:39:42.385Z,3.60
2022-09-29T14:42:26.056Z,3.72
2022-09-29T14:45:26.769Z,3.15
2022-09-29T14:48:31.555Z,3.45
2022-09-29T14:51:40.491Z,3.50
2022-09-29T14:54:29.421Z,3.42
2022-09-29T14:57:24.510Z,3.75
2022-09-29T15:00:12.649Z,3.22
2022-09-29T15:03:00.296Z,3.58
2022-09-29T15:05:47.772Z,3.25
2022-09-29T15:08:31.878Z,3.67
2022-09-29T15:11:29.528Z,3.90
2022-09-29T15:14:22.824Z,3.78
2022-09-29T15:17:08.685Z,3.97
2022-09-29T15:19:58.615Z,3.80
2022-09-29T15:22:59.721Z,3.63
2022-09-29T15:25:42.804Z,3.90
2022-09-29T15:28:30.316Z,4.43
2022-09-29T15:31:17.222Z,3.60
2022-09-29T15:33:59.939Z,4.45
2022-09-29T15:36:42.777Z,4.13
2022-09-29T15:39:46.356Z,4.10
2022-09-29T15:42:30.202Z,4.70
2022-09-29T15:45:18.136Z,4.38
2022-09-29T15:48:02.392Z,4.53
2022-09-29T15:50:45.098Z,3.65
2022-09-29T15:53:28.675Z,4.07
2022-09-29T15:56:11.376Z,4.13
2022-09-29T15:58:54.314Z,4.25
2022-09-29T16:01:38.766Z,4.38
2022-09-29T16:04:21.585Z,4.10
2022-09-29T16:07:04.587Z,3.78
2022-09-29T16:09:47.320Z,4.28
2022-09-29T16:12:32.963Z,4.22
2022-09-29T16:15:18.161Z,4.03
2022-09-29T16:18:03.271Z,3.88
2022-09-29T16:20:47.347Z,3.67
2022-09-29T16:23:35.946Z,3.72
2022-09-29T16:26:19.494Z,3.60
2022-09-29T16:29:04.801Z,3.60
2022-09-29T16:31:48.646Z,3.70
2022-09-29T16:34:33.819Z,3.20
2022-09-29T16:37:17.803Z,3.10
2022-09-29T16:40:00.494Z,3.28
2022-09-29T16:42:54.158Z,3.08
2022-09-29T16:45:37.376Z,2.80
2022-09-29T16:48:20.952Z,3.00
2022-09-29T16:51:12.362Z,2.90
2022-09-29T16:54:04.402Z,3.10
2022-09-29T16:56:48.196Z,3.10
2022-09-29T16:59:30.755Z,2.80
2022-09-29T17:02:14.038Z,2.90
2022-09-29T17:04:57.583Z,2.20
2022-09-29T17:07:42.522Z,2.80
2022-09-29T17:10:25.128Z,2.40
2022-09-29T17:13:10.232Z,2.30
2022-09-29T17:15:53.888Z,2.55
2022-09-29T17:18:36.852Z,2.60
2022-09-29T17:21:19.515Z,2.88
2022-09-29T17:24:03.780Z,2.60
2022-09-29T17:27:04.334Z,2.60
2022-09-29T17:29:47.247Z,3.08
2022-09-29T17:32:29.850Z,2.80
2022-09-29T17:35:14.420Z,2.70
2022-09-29T17:37:57.153Z,2.78
2022-09-29T17:40:44.880Z,2.70
2022-09-29T17:43:28.569Z,2.70
2022-09-29T17:46:12.087Z,2.58
2022-09-29T17:48:54.667Z,2.70
2022-09-29T17:51:37.399Z,2.60
2022-09-29T17:54:20.969Z,2.60
2022-09-29T17:57:05.474Z,2.53
2022-09-29T17:59:48.235Z,2.72
2022-09-29T18:02:30.968Z,2.60
2022-09-29T18:05:13.813Z,2.75
2022-09-29T18:07:57.247Z,2.90
2022-09-29T18:10:42.826Z,3.13
2022-09-29T18:13:28.019Z,3.03
2022-09-29T18:16:11.468Z,3.40
2022-09-29T18:18:58.650Z,3.42
2022-09-29T18:21:41.677Z,3.55
2022-09-29T18:24:24.339Z,3.78
2022-09-29T18:27:07.868Z,3.67
2022-09-29T18:29:51.984Z,4.00
2022-09-29T18:32:34.684Z,3.92
2022-09-29T18:35:18.939Z,4.00
2022-09-29T18:38:02.378Z,3.90
2022-09-29T18:40:45.248Z,4.28
2022-09-29T18:43:28.875Z,4.30
2022-09-29T18:46:14.064Z,4.10
2022-09-29T18:48:56.815Z,4.70
2022-09-29T18:51:40.043Z,4.35
2022-09-29T18:54:22.771Z,4.50
2022-09-29T18:57:07.171Z,4.65
2022-09-29T18:59:52.089Z,4.82
2022-09-29T19:02:36.319Z,4.50
2022-09-29T19:05:21.381Z,4.35
2022-09-29T19:08:05.244Z,4.47
2022-09-29T19:10:52.022Z,4.60
2022-09-29T19:13:34.770Z,5.00
2022-09-29T19:16:17.499Z,4.93
2022-09-29T19:19:04.334Z,4.45
2022-09-29T19:21:47.118Z,4.55
2022-09-29T19:24:29.901Z,4.60
2022-09-29T19:27:12.750Z,4.95
2022-09-29T19:29:58.507Z,4.20
2022-09-29T19:32:45.580Z,4.68
2022-09-29T19:35:30.219Z,4.40
2022-09-29T19:38:13.628Z,4.40
2022-09-29T19:40:56.247Z,4.38
2022-09-29T19:43:38.989Z,4.50
2022-09-29T19:46:22.504Z,4.40
2022-09-29T19:49:05.252Z,4.10
2022-09-29T19:51:52.904Z,4.22
2022-09-29T19:54:36.288Z,4.68
2022-09-29T19:57:18.964Z,4.00
2022-09-29T20:00:03.291Z,4.07
2022-09-29T20:02:55.027Z,3.70
2022-09-29T20:05:38.191Z,3.50
2022-09-29T20:08:22.273Z,3.80
2022-09-29T20:11:08.101Z,3.63
2022-09-29T20:13:50.862Z,3.58
2022-09-29T20:16:33.973Z,3.53
2022-09-29T20:19:18.676Z,3.47
2022-09-29T20:22:01.392Z,3.50
2022-09-29T20:24:45.392Z,3.10
2022-09-29T20:27:28.042Z,3.80
2022-09-29T20:30:11.097Z,3.22
2022-09-29T20:32:53.982Z,3.45
2022-09-29T20:35:39.601Z,3.25
2022-09-29T20:38:22.256Z,2.70
2022-09-29T20:41:06.431Z,3.03
2022-09-29T20:43:49.556Z,2.78
2022-09-29T20:46:32.589Z,2.80
2022-09-29T20:49:15.336Z,2.67
2022-09-29T20:51:59.272Z,2.42
2022-09-29T20:54:42.801Z,2.72
2022-09-29T20:57:26.763Z,2.50
2022-09-29T21:00:10.695Z,2.50
2022-09-29T21:02:53.425Z,2.70
2022-09-29T21:05:36.089Z,2.17
2022-09-29T21:08:18.793Z,2.30
2022-09-29T21:11:01.680Z,2.15
2022-09-29T21:13:48.498Z,2.20
2022-09-29T21:16:31.430Z,2.20
2022-09-29T21:19:14.899Z,2.40
2022-09-29T21:21:57.573Z,2.22
2022-09-29T21:24:41.563Z,2.20
2022-09-29T21:27:24.274Z,2.15
2022-09-29T21:30:09.956Z,2.65
2022-09-29T21:32:52.666Z,1.90
2022-09-29T21:35:35.638Z,2.08
2022-09-29T21:38:18.237Z,1.90
2022-09-29T21:41:04.646Z,2.25
2022-09-29T21:43:47.703Z,1.90
2022-09-29T21:46:33.208Z,1.80
2022-09-29T21:49:18.072Z,2.00
2022-09-29T21:52:02.194Z,2.00
2022-09-29T21:54:44.971Z,2.15
2022-09-29T21:57:29.174Z,1.60
2022-09-29T22:00:12.613Z,1.83
2022-09-29T22:02:56.682Z,1.50
2022-09-29T22:05:42.146Z,1.70
2022-09-29T22:08:24.915Z,1.42
2022-09-29T22:11:08.156Z,1.50
2022-09-29T22:13:51.263Z,1.30
2022-09-29T22:16:34.803Z,1.25
2022-09-29T22:19:23.288Z,1.58
2022-09-29T22:22:06.516Z,1.33
2022-09-29T22:24:49.143Z,1.25
2022-09-29T22:27:31.733Z,1.40
2022-09-29T22:30:14.404Z,1.60
2022-09-29T22:32:57.144Z,1.40
2022-09-29T22:35:41.566Z,1.27
2022-09-29T22:38:24.587Z,1.38
2022-09-29T22:41:11.635Z,1.60
2022-09-29T22:43:54.784Z,1.52
2022-09-29T22:46:37.574Z,1.25
2022-09-29T22:49:21.783Z,1.27
2022-09-29T22:52:05.935Z,1.40
2022-09-29T22:54:48.563Z,1.40
2022-09-29T22:57:31.437Z,1.40
2022-09-29T23:00:14.550Z,1.40
2022-09-29T23:02:57.249Z,1.40
2022-09-29T23:05:41.425Z,1.30
2022-09-29T23:08:25.867Z,1.42
2022-09-29T23:11:09.248Z,1.30
2022-09-29T23:13:52.784Z,1.38
2022-09-29T23:16:35.621Z,1.10
2022-09-29T23:19:19.805Z,1.35
2022-09-29T23:22:02.507Z,1.30
2022-09-29T23:24:46.500Z,1.38
2022-09-29T23:27:30.672Z,1.50
2022-09-29T23:30:13.357Z,1.40
2022-09-29T23:32:56.035Z,1.10
2022-09-29T23:35:38.680Z,1.23
2022-09-29T23:38:39.398Z,1.40
2022-09-29T23:41:26.903Z,1.23
2022-09-29T23:44:09.880Z,1.23
2022-09-29T23:46:54.203Z,1.30
2022-09-29T23:49:36.846Z,1.60
2022-09-29T23:52:20.119Z,1.33
2022-09-29T23:55:02.804Z,1.27
2022-09-29T23:57:46.808Z,1.73
